Time;durP1;ratioP1;P1;durP2;ratioP2;P2;SDS_P1;SDS_P2;PMS_P1;PMS_P2;Temp;Humidity;BMP_temperature;BMP_pressure;BME280_temperature;BME280_humidity;BME280_pressure;Samples;Min_cycle;Max_cycle;Signal;HPM_P1;HPM_P2
2023/03/22 00:01:21;;;;;;;19.02;5.40;;;;;;;8.88;99.30;100825.72;5072723;28;20036;-74
2023/03/22 00:03:47;;;;;;;18.55;5.32;;;;;;;8.86;99.39;100817.78;5072386;28;20034;-74
2023/03/22 00:06:13;;;;;;;15.23;4.45;;;;;;;8.84;99.21;100817.03;5081059;28;20024;-74
2023/03/22 00:08:38;;;;;;;17.00;4.72;;;;;;;8.83;99.22;100814.44;5058016;28;20041;-75
2023/03/22 00:11:05;;;;;;;17.60;4.82;;;;;;;8.81;99.33;100808.34;5077560;28;20052;-74
2023/03/22 00:13:31;;;;;;;14.00;4.22;;;;;;;8.78;99.26;100811.22;5051191;28;20095;-74
2023/03/22 00:15:58;;;;;;;13.93;4.35;;;;;;;8.77;99.23;100807.69;5070180;28;20024;-74
2023/03/22 00:18:24;;;;;;;17.67;4.72;;;;;;;8.74;99.23;100806.06;5063366;28;20025;-74
2023/03/22 00:20:54;;;;;;;15.43;4.38;;;;;;;8.71;99.23;100803.59;5080977;28;20055;-74
2023/03/22 00:23:19;;;;;;;;;;;;;;;8.79;98.52;100804.91;5073318;28;20075;-74
2023/03/22 00:25:46;;;;;;;13.35;4.25;;;;;;;8.68;99.02;100800.25;5060316;28;19919;-74
2023/03/22 00:28:12;;;;;;;12.75;4.10;;;;;;;8.64;99.55;100796.94;5077894;28;20089;-74
2023/03/22 00:30:38;;;;;;;16.60;4.72;;;;;;;8.60;99.63;100787.38;5072318;28;20427;-75
2023/03/22 00:33:04;;;;;;;17.40;4.65;;;;;;;8.58;99.68;100783.94;5062530;28;20033;-74
2023/03/22 00:35:29;;;;;;;18.40;4.30;;;;;;;8.55;99.86;100779.66;5077529;28;20041;-74
2023/03/22 00:37:55;;;;;;;13.75;4.18;;;;;;;8.55;100.00;100773.41;5067227;28;20017;-74
2023/03/22 00:40:20;;;;;;;13.95;4.03;;;;;;;8.54;100.00;100769.03;5076101;28;20048;-74
2023/03/22 00:42:45;;;;;;;14.48;4.68;;;;;;;8.54;100.00;100767.19;5070880;28;20017;-74
2023/03/22 00:45:12;;;;;;;17.77;4.88;;;;;;;8.55;100.00;100770.72;5077678;28;20029;-74
2023/03/22 00:47:37;;;;;;;18.63;4.70;;;;;;;8.56;100.00;100759.06;5079984;28;20047;-74
2023/03/22 00:50:05;;;;;;;17.77;4.43;;;;;;;8.56;100.00;100754.59;5058414;28;20077;-74
2023/03/22 00:52:30;;;;;;;20.50;5.03;;;;;;;8.58;100.00;100762.50;5068442;28;20072;-74
2023/03/22 00:54:56;;;;;;;21.35;5.32;;;;;;;8.58;100.00;100751.81;5068482;28;20457;-75
2023/03/22 00:57:21;;;;;;;17.55;5.22;;;;;;;8.58;100.00;100743.75;5064900;28;20021;-74
2023/03/22 00:59:47;;;;;;;15.88;4.35;;;;;;;8.59;100.00;100742.78;5077981;28;20037;-74
2023/03/22 01:02:13;;;;;;;15.85;4.95;;;;;;;8.61;100.00;100746.22;5076034;28;20044;-74
2023/03/22 01:04:45;;;;;;;17.15;5.20;;;;;;;8.62;100.00;100739.03;5079145;28;20412;-74
2023/03/22 01:07:16;;;;;;;18.65;5.68;;;;;;;8.63;100.00;100735.41;5081592;28;20025;-74
2023/03/22 01:09:42;;;;;;;19.77;6.57;;;;;;;8.63;100.00;100733.59;5077528;28;20078;-74
2023/03/22 01:12:07;;;;;;;19.27;6.53;;;;;;;8.66;100.00;100736.06;5076364;28;20074;-74
2023/03/22 01:14:33;;;;;;;19.92;6.72;;;;;;;8.68;100.00;100735.94;5070791;28;20029;-75
2023/03/22 01:16:58;;;;;;;23.23;7.50;;;;;;;8.71;100.00;100727.69;5076236;28;20029;-75
2023/03/22 01:19:23;;;;;;;23.88;7.82;;;;;;;8.70;100.00;100718.81;5080930;28;20044;-74
2023/03/22 01:21:49;;;;;;;21.75;7.85;;;;;;;8.71;100.00;100717.84;5077082;28;20029;-74
2023/03/22 01:24:15;;;;;;;23.95;7.68;;;;;;;8.73;100.00;100705.19;5085932;28;20024;-75
2023/03/22 01:26:41;;;;;;;22.00;8.50;;;;;;;8.76;100.00;100697.94;5075881;28;20100;-75
2023/03/22 01:29:06;;;;;;;24.50;8.60;;;;;;;8.78;100.00;100690.63;5070714;28;20029;-75
2023/03/22 01:31:32;;;;;;;23.10;8.57;;;;;;;8.81;100.00;100677.88;5073149;28;20029;-75
2023/03/22 01:33:57;;;;;;;21.30;8.25;;;;;;;8.84;100.00;100679.50;5070608;28;20096;-74
2023/03/22 01:36:22;;;;;;;21.45;9.27;;;;;;;8.86;100.00;100674.91;5068634;28;20024;-74
2023/03/22 01:38:48;;;;;;;25.35;9.32;;;;;;;8.87;100.00;100669.44;5076497;28;20028;-74
2023/03/22 01:41:15;;;;;;;23.90;9.55;;;;;;;8.89;100.00;100670.19;5076438;28;20032;-74
2023/03/22 01:43:40;;;;;;;21.08;9.07;;;;;;;8.92;100.00;100663.75;5070225;28;20368;-75
2023/03/22 01:46:06;;;;;;;21.63;8.85;;;;;;;8.95;100.00;100657.34;5069544;28;20006;-75
2023/03/22 01:48:34;;;;;;;28.73;10.68;;;;;;;8.97;100.00;100650.88;5078210;28;20032;-75
2023/03/22 01:51:12;;;;;;;22.77;9.55;;;;;;;8.99;100.00;100646.28;5065672;28;20088;-75
2023/03/22 01:53:51;;;;;;;20.95;9.23;;;;;;;9.01;100.00;100630.94;5066381;28;20021;-75
2023/03/22 01:56:20;;;;;;;22.75;9.75;;;;;;;9.03;100.00;100639.72;5085156;28;20012;-75
2023/03/22 01:58:46;;;;;;;22.02;9.18;;;;;;;9.06;100.00;100636.84;5078593;28;20024;-75
2023/03/22 02:01:12;;;;;;;20.73;8.43;;;;;;;9.07;100.00;100630.50;5084108;28;20033;-75
2023/03/22 02:03:47;;;;;;;23.58;10.57;;;;;;;9.08;100.00;100621.50;5070694;28;20066;-75
2023/03/22 02:06:12;;;;;;;25.90;9.43;;;;;;;9.10;100.00;100619.56;5074563;28;20025;-74
2023/03/22 02:08:39;;;;;;;22.77;9.68;;;;;;;9.10;100.00;100622.22;5085227;28;20043;-75
2023/03/22 02:11:05;;;;;;;21.95;8.55;;;;;;;9.10;100.00;100616.03;5072347;28;20045;-74
2023/03/22 02:13:59;;;;;;;24.35;9.90;;;;;;;9.12;100.00;100618.59;5069868;28;20044;-74
2023/03/22 02:16:44;;;;;;;26.20;11.38;;;;;;;9.13;100.00;100612.28;5082637;28;20080;-75
2023/03/22 02:19:50;;;;;;;21.63;9.43;;;;;;;9.15;100.00;100604.97;5071626;28;20479;-74
2023/03/22 02:22:51;;;;;;;21.52;9.05;;;;;;;9.14;100.00;100611.31;5071462;28;20059;-75
2023/03/22 02:25:54;;;;;;;22.20;10.32;;;;;;;9.16;100.00;100606.69;5072597;28;20039;-75
2023/03/22 02:28:34;;;;;;;22.27;10.20;;;;;;;9.15;100.00;100595.13;5073437;28;20062;-74
2023/03/22 02:31:28;;;;;;;26.70;10.02;;;;;;;9.18;100.00;100594.03;5068684;28;20084;-74
2023/03/22 02:34:27;;;;;;;24.83;10.93;;;;;;;9.19;100.00;100599.28;5074104;28;20029;-74
2023/03/22 02:37:05;;;;;;;22.48;9.70;;;;;;;9.21;100.00;100593.78;5068788;28;20025;-75
2023/03/22 02:39:40;;;;;;;28.52;10.10;;;;;;;9.21;100.00;100593.78;5070186;28;20028;-75
2023/03/22 02:42:26;;;;;;;22.23;10.15;;;;;;;9.21;100.00;100593.78;5066643;28;20088;-75
2023/03/22 02:45:00;;;;;;;21.92;9.40;;;;;;;9.22;100.00;100599.09;5079907;28;20025;-74
2023/03/22 02:47:47;;;;;;;23.65;9.27;;;;;;;9.23;100.00;100591.88;5072640;28;20082;-74
2023/03/22 02:50:23;;;;;;;22.30;9.00;;;;;;;9.23;100.00;100590.03;5078076;28;20029;-75
2023/03/22 02:52:54;;;;;;;22.45;8.98;;;;;;;9.25;100.00;100590.81;5072785;28;20025;-75
2023/03/22 02:55:28;;;;;;;21.55;8.82;;;;;;;9.25;100.00;100577.41;5074299;28;20029;-75
2023/03/22 02:58:11;;;;;;;19.35;8.13;;;;;;;9.25;100.00;100569.34;5072848;28;20048;-75
2023/03/22 03:00:38;;;;;;;21.48;7.93;;;;;;;9.26;100.00;100567.53;5071962;28;20020;-75
2023/03/22 03:03:17;;;;;;;20.20;8.23;;;;;;;9.27;100.00;100572.78;5077623;28;20021;-75
2023/03/22 03:05:45;;;;;;;21.98;8.68;;;;;;;9.28;100.00;100570.94;5079676;28;20112;-74
2023/03/22 03:08:14;;;;;;;21.80;8.20;;;;;;;9.29;100.00;100569.13;5069870;28;20032;-75
2023/03/22 03:10:40;;;;;;;19.00;7.65;;;;;;;9.29;100.00;100571.81;5073937;28;20059;-75
2023/03/22 03:13:11;;;;;;;19.45;7.45;;;;;;;9.29;100.00;100563.78;5067941;28;20059;-74
2023/03/22 03:15:42;;;;;;;19.63;6.85;;;;;;;9.30;100.00;100562.78;5073194;28;20046;-75
2023/03/22 03:18:33;;;;;;;20.65;7.22;;;;;;;9.30;100.00;100560.97;5086854;28;20013;-75
2023/03/22 03:21:13;;;;;;;20.70;7.22;;;;;;;9.30;100.00;100552.94;5072391;28;20212;-75
2023/03/22 03:23:41;;;;;;;;;;;;;;;9.35;100.00;100557.94;5074319;28;20037;-75
2023/03/22 03:26:19;;;;;;;20.30;6.97;;;;;;;9.30;100.00;100563.66;5080952;28;19951;-75
2023/03/22 03:29:08;;;;;;;20.70;6.97;;;;;;;9.31;100.00;100559.13;5076779;28;20029;-75
2023/03/22 03:31:42;;;;;;;19.55;6.32;;;;;;;9.30;100.00;100555.59;5071304;28;20025;-74
2023/03/22 03:34:36;;;;;;;16.33;6.72;;;;;;;9.32;100.00;100563.53;5074464;28;20028;-75
2023/03/22 03:37:07;;;;;;;17.38;6.32;;;;;;;9.30;100.00;100558.28;5074749;28;20093;-75
2023/03/22 03:39:42;;;;;;;18.35;6.60;;;;;;;9.28;100.00;100552.16;5066943;28;20025;-75
2023/03/22 03:42:13;;;;;;;20.42;5.80;;;;;;;9.27;100.00;100555.84;5069906;28;20088;-75
2023/03/22 03:44:42;;;;;;;18.35;6.43;;;;;;;9.25;100.00;100552.41;5077218;28;20021;-75
2023/03/22 03:47:08;;;;;;;18.15;6.90;;;;;;;9.24;100.00;100553.38;5080517;28;20066;-75
2023/03/22 03:49:34;;;;;;;20.73;5.68;;;;;;;9.23;100.00;100562.38;5054159;28;20072;-75
2023/03/22 03:52:00;;;;;;;17.70;5.30;;;;;;;9.22;100.00;100563.34;5075217;28;20040;-74
2023/03/22 03:54:25;;;;;;;17.70;5.43;;;;;;;9.20;100.00;100565.28;5069481;28;20017;-74
2023/03/22 03:56:52;;;;;;;16.70;5.45;;;;;;;9.17;100.00;100570.88;5069729;28;20058;-75
2023/03/22 03:59:19;;;;;;;16.25;5.57;;;;;;;9.15;100.00;100565.63;5077456;28;20058;-75
2023/03/22 04:01:49;;;;;;;20.77;5.88;;;;;;;9.12;100.00;100562.28;5073967;28;20029;-75
2023/03/22 04:04:27;;;;;;;22.08;6.03;;;;;;;9.12;100.00;100565.81;5082008;28;20024;-74
2023/03/22 04:06:58;;;;;;;17.60;5.90;;;;;;;9.09;100.00;100561.56;5058963;28;20029;-74
2023/03/22 04:09:26;;;;;;;16.90;5.13;;;;;;;9.07;100.00;100562.63;5072715;28;20028;-74
2023/03/22 04:11:51;;;;;;;17.13;5.43;;;;;;;9.05;100.00;100559.22;5074176;28;20021;-74
2023/03/22 04:14:17;;;;;;;18.30;5.95;;;;;;;9.04;100.00;100554.81;5067638;28;20029;-75
2023/03/22 04:16:42;;;;;;;20.10;5.03;;;;;;;9.03;100.00;100559.28;5084163;28;20096;-74
2023/03/22 04:19:07;;;;;;;16.98;5.03;;;;;;;9.01;100.00;100555.88;5072761;28;20740;-74
2023/03/22 04:21:33;;;;;;;15.93;4.78;;;;;;;9.00;100.00;100561.34;5081753;28;20044;-75
2023/03/22 04:23:58;;;;;;;19.80;5.60;;;;;;;8.99;100.00;100554.28;5070858;28;20055;-74
2023/03/22 04:26:23;;;;;;;15.48;4.93;;;;;;;8.96;100.00;100544.66;5081349;28;20021;-75
2023/03/22 04:28:49;;;;;;;16.15;4.97;;;;;;;8.97;100.00;100545.50;5080167;28;20090;-75
2023/03/22 04:31:14;;;;;;;15.95;4.93;;;;;;;8.94;100.00;100538.53;5076897;28;20054;-75
2023/03/22 04:33:39;;;;;;;15.23;5.35;;;;;;;8.94;100.00;100537.69;5082280;28;20020;-75
2023/03/22 04:36:09;;;;;;;17.73;5.50;;;;;;;8.91;100.00;100539.59;5078943;28;20451;-75
2023/03/22 04:38:34;;;;;;;17.50;5.15;;;;;;;8.92;100.00;100535.09;5080278;28;20028;-75
2023/03/22 04:41:00;;;;;;;15.80;4.38;;;;;;;8.89;100.00;100535.31;5071854;28;20081;-75
2023/03/22 04:43:25;;;;;;;16.65;4.88;;;;;;;8.90;100.00;100542.38;5075788;28;20028;-75
2023/03/22 04:45:53;;;;;;;18.77;5.18;;;;;;;8.89;100.00;100540.69;5078517;28;20017;-75
2023/03/22 04:48:21;;;;;;;15.75;5.00;;;;;;;8.88;100.00;100536.28;5076543;28;20025;-75
2023/03/22 04:50:46;;;;;;;18.92;4.75;;;;;;;8.87;100.00;100535.44;5074438;28;20142;-75
2023/03/22 04:53:11;;;;;;;18.10;5.07;;;;;;;8.89;100.00;100541.53;5079089;28;20037;-75
2023/03/22 04:55:37;;;;;;;18.55;4.97;;;;;;;8.88;100.00;100533.59;5073648;28;20027;-75
2023/03/22 04:58:02;;;;;;;15.27;4.72;;;;;;;8.88;100.00;100541.66;5077863;28;20037;-75
2023/03/22 05:00:29;;;;;;;16.88;4.85;;;;;;;8.89;100.00;100530.81;5082869;28;20020;-75
2023/03/22 05:02:54;;;;;;;14.02;4.53;;;;;;;8.89;100.00;100535.31;5078849;28;20024;-75
2023/03/22 05:05:19;;;;;;;20.58;4.82;;;;;;;8.89;100.00;100522.78;5073905;28;20039;-75
2023/03/22 05:07:45;;;;;;;16.73;4.45;;;;;;;8.89;100.00;100532.66;5054460;28;20033;-75
2023/03/22 05:10:10;;;;;;;17.73;4.93;;;;;;;8.88;100.00;100526.41;5070805;28;20037;-75
2023/03/22 05:12:35;;;;;;;16.48;4.60;;;;;;;8.89;100.00;100522.78;5071551;28;20020;-75
2023/03/22 05:15:03;;;;;;;14.10;4.65;;;;;;;8.90;100.00;100528.97;5068682;28;20066;-75
2023/03/22 05:17:28;;;;;;;18.42;5.38;;;;;;;8.88;100.00;100522.88;5068359;28;20034;-74
2023/03/22 05:19:53;;;;;;;23.10;5.03;;;;;;;8.85;100.00;100520.44;5077767;28;20048;-74
2023/03/22 05:22:21;;;;;;;17.90;5.07;;;;;;;8.85;100.00;100520.44;5084683;28;20032;-75
2023/03/22 05:24:46;;;;;;;20.17;4.85;;;;;;;8.83;100.00;100519.66;5068990;28;20447;-75
2023/03/22 05:27:13;;;;;;;14.57;4.40;;;;;;;8.82;100.00;100524.16;5075576;28;20124;-75
2023/03/22 05:29:43;;;;;;;16.33;4.80;;;;;;;8.83;100.00;100525.91;5078624;28;20111;-75
2023/03/22 05:32:10;;;;;;;16.85;4.88;;;;;;;8.84;100.00;100527.59;5069491;28;20016;-75
2023/03/22 05:34:35;;;;;;;16.48;4.57;;;;;;;8.85;100.00;100528.47;5082441;28;20029;-75
2023/03/22 05:37:01;;;;;;;15.82;4.63;;;;;;;8.86;100.00;100524.81;5073203;28;20039;-74
2023/03/22 05:39:27;;;;;;;14.80;4.72;;;;;;;8.86;100.00;100522.16;5082193;28;20036;-74
2023/03/22 05:41:52;;;;;;;17.42;3.92;;;;;;;8.85;100.00;100512.38;5068555;28;20045;-75
2023/03/22 05:44:17;;;;;;;15.73;3.97;;;;;;;8.85;100.00;100518.59;5080293;28;20025;-75
2023/03/22 05:46:43;;;;;;;19.50;4.43;;;;;;;8.85;100.00;100518.59;5073158;28;20020;-74
2023/03/22 05:49:08;;;;;;;13.80;4.00;;;;;;;8.84;100.00;100524.91;5075047;28;20046;-75
2023/03/22 05:51:40;;;;;;;18.73;4.40;;;;;;;8.84;100.00;100524.91;5076506;28;20052;-75
2023/03/22 05:54:06;;;;;;;15.98;3.65;;;;;;;8.85;100.00;100523.09;5076240;28;20030;-75
2023/03/22 05:56:31;;;;;;;18.67;4.70;;;;;;;8.86;100.00;100523.00;5076113;28;20081;-74
2023/03/22 05:58:57;;;;;;;16.67;4.40;;;;;;;8.87;100.00;100521.16;5075001;28;20013;-75
2023/03/22 06:01:24;;;;;;;15.20;3.60;;;;;;;8.88;100.00;100534.44;5073398;28;20044;-74
2023/03/22 06:03:49;;;;;;;14.63;3.60;;;;;;;8.91;100.00;100530.69;5067286;28;20028;-75
2023/03/22 06:06:15;;;;;;;14.50;3.97;;;;;;;8.90;100.00;100518.25;5064979;28;20029;-74
2023/03/22 06:08:40;;;;;;;18.98;4.13;;;;;;;8.90;100.00;100515.56;5073733;28;20028;-74
2023/03/22 06:11:06;;;;;;;11.65;3.53;;;;;;;8.90;100.00;100519.13;5077570;28;20021;-74
2023/03/22 06:13:32;;;;;;;13.90;3.90;;;;;;;8.92;100.00;100529.75;5074760;28;20032;-74
2023/03/22 06:16:02;;;;;;;10.48;3.45;;;;;;;8.94;100.00;100525.13;5069227;28;20025;-75
2023/03/22 06:18:27;;;;;;;15.18;3.88;;;;;;;8.95;100.00;100521.47;5071412;28;20029;-75
2023/03/22 06:20:53;;;;;;;16.45;4.40;;;;;;;8.97;100.00;100524.03;5058195;28;20071;-75
2023/03/22 06:23:19;;;;;;;13.98;4.32;;;;;;;9.00;100.00;100521.16;5075507;28;20024;-75
2023/03/22 06:25:44;;;;;;;20.58;3.88;;;;;;;9.03;100.00;100521.75;5073077;28;20060;-74
2023/03/22 06:28:09;;;;;;;12.32;3.47;;;;;;;9.05;100.00;100530.56;5065322;28;20021;-75
2023/03/22 06:30:35;;;;;;;15.65;4.30;;;;;;;9.08;100.00;100521.47;5051609;28;20025;-75
2023/03/22 06:33:03;;;;;;;22.35;4.45;;;;;;;9.10;100.00;100512.31;5074255;28;20195;-74
2023/03/22 06:35:29;;;;;;;16.08;4.72;;;;;;;9.14;100.00;100518.31;5081242;28;20020;-74
2023/03/22 06:37:55;;;;;;;13.73;4.20;;;;;;;9.18;99.40;100524.31;5065604;28;20458;-74
2023/03/22 06:40:20;;;;;;;14.80;4.38;;;;;;;9.21;99.56;100526.75;5058466;28;20013;-75
2023/03/22 06:42:46;;;;;;;20.02;4.50;;;;;;;9.24;98.95;100524.72;5066827;28;20032;-75
2023/03/22 06:45:15;;;;;;;16.55;4.72;;;;;;;9.27;99.26;100534.38;5059861;28;20036;-75
2023/03/22 06:47:40;;;;;;;18.35;4.30;;;;;;;9.31;98.76;100525.13;5067970;28;20032;-75
2023/03/22 06:50:06;;;;;;;16.38;5.13;;;;;;;9.34;98.50;100527.59;5072718;28;20473;-75
2023/03/22 06:52:31;;;;;;;19.40;5.05;;;;;;;9.38;98.47;100520.19;5074993;28;20024;-75
2023/03/22 06:54:56;;;;;;;17.83;4.90;;;;;;;9.44;98.20;100515.22;5070412;28;20075;-74
2023/03/22 06:57:21;;;;;;;15.05;4.57;;;;;;;9.51;98.29;100520.13;5065426;28;20472;-74
2023/03/22 06:59:47;;;;;;;17.65;4.75;;;;;;;9.56;97.95;100521.50;5069737;28;20060;-75
2023/03/22 07:02:12;;;;;;;17.05;4.75;;;;;;;9.61;97.47;100515.78;5067522;28;20060;-74
2023/03/22 07:04:38;;;;;;;15.77;5.00;;;;;;;9.65;96.53;100521.78;5072478;28;20092;-74
2023/03/22 07:07:03;;;;;;;18.63;5.47;;;;;;;9.67;96.34;100525.22;5066180;28;20029;-75
2023/03/22 07:09:28;;;;;;;18.60;4.65;;;;;;;9.68;96.08;100524.22;5069505;28;20278;-75
2023/03/22 07:11:54;;;;;;;18.95;5.32;;;;;;;9.70;96.42;100520.47;5053157;28;20040;-74
2023/03/22 07:14:20;;;;;;;15.40;4.90;;;;;;;9.71;95.12;100519.50;5061377;28;20044;-75
2023/03/22 07:16:45;;;;;;;17.88;5.32;;;;;;;9.72;94.95;100518.53;5054844;28;20094;-74
2023/03/22 07:19:11;;;;;;;16.08;5.72;;;;;;;9.74;95.47;100518.41;5064627;28;20090;-74
2023/03/22 07:21:36;;;;;;;21.83;4.97;;;;;;;9.77;95.32;100524.41;5075211;28;20036;-74
2023/03/22 07:24:02;;;;;;;18.90;4.65;;;;;;;9.80;95.21;100516.13;5065055;28;20036;-74
2023/03/22 07:26:29;;;;;;;13.85;4.63;;;;;;;9.84;94.81;100521.25;5077697;28;20028;-76
2023/03/22 07:28:55;;;;;;;17.40;4.90;;;;;;;9.88;94.04;100528.09;5069770;28;20029;-75
2023/03/22 07:31:21;;;;;;;16.55;5.63;;;;;;;9.94;94.49;100530.31;5070707;28;20348;-76
2023/03/22 07:33:47;;;;;;;20.33;5.13;;;;;;;9.96;93.38;100531.91;5073649;28;20089;-75
2023/03/22 07:36:15;;;;;;;22.70;5.35;;;;;;;10.00;92.84;100537.06;5071697;28;20035;-75
2023/03/22 07:38:40;;;;;;;15.52;4.55;;;;;;;10.03;92.89;100532.31;5050068;28;20033;-75
2023/03/22 07:41:06;;;;;;;19.02;5.57;;;;;;;10.07;93.25;100533.81;5065965;28;20040;-75
2023/03/22 07:43:31;;;;;;;19.92;5.63;;;;;;;10.11;92.70;100537.09;5061948;28;20357;-75
2023/03/22 07:45:56;;;;;;;20.80;5.53;;;;;;;10.15;92.53;100527.84;5066725;28;20093;-75
2023/03/22 07:48:22;;;;;;;17.15;5.57;;;;;;;10.21;92.02;100522.00;5070721;28;20522;-75
2023/03/22 07:50:47;;;;;;;14.10;4.88;;;;;;;10.28;90.31;100533.13;5071046;28;20021;-75
2023/03/22 07:53:13;;;;;;;19.00;4.57;;;;;;;10.33;90.23;100533.59;5073325;28;20020;-75
2023/03/22 07:55:41;;;;;;;19.02;5.60;;;;;;;10.39;90.60;100533.16;5075114;28;20052;-75
2023/03/22 07:58:06;;;;;;;20.23;5.00;;;;;;;10.41;89.51;100520.47;5072684;28;20016;-75
2023/03/22 08:00:31;;;;;;;15.75;4.55;;;;;;;10.43;87.54;100537.31;5072318;28;20036;-75
2023/03/22 08:02:57;;;;;;;17.65;4.05;;;;;;;10.43;87.53;100534.63;5073417;28;20040;-75
2023/03/22 08:05:22;;;;;;;12.10;3.85;;;;;;;10.45;87.70;100529.16;5077302;28;20078;-75
2023/03/22 08:07:50;;;;;;;16.15;4.07;;;;;;;10.46;86.87;100541.63;5077310;28;20095;-75
2023/03/22 08:10:15;;;;;;;14.45;3.70;;;;;;;10.47;86.07;100536.13;5076333;28;20032;-75
2023/03/22 08:12:41;;;;;;;13.60;3.60;;;;;;;10.52;87.07;100534.91;5072543;28;20036;-75
2023/03/22 08:15:07;;;;;;;14.05;4.55;;;;;;;10.55;86.65;100531.97;5070902;28;20029;-75
2023/03/22 08:17:33;;;;;;;13.95;3.63;;;;;;;10.58;86.52;100537.09;5074597;28;20067;-75
2023/03/22 08:19:58;;;;;;;11.80;3.65;;;;;;;10.60;85.81;100546.78;5068001;28;20049;-75
2023/03/22 08:22:24;;;;;;;10.82;3.13;;;;;;;10.64;85.25;100542.00;5074106;28;20039;-75
2023/03/22 08:24:53;;;;;;;16.95;3.85;;;;;;;10.68;85.12;100548.00;5069820;28;20032;-75
2023/03/22 08:27:18;;;;;;;12.30;4.35;;;;;;;10.71;85.15;100529.78;5076703;28;20083;-75
2023/03/22 08:29:46;;;;;;;12.35;3.00;;;;;;;10.77;85.83;100531.97;5074246;28;20032;-75
2023/03/22 08:32:11;;;;;;;12.63;3.70;;;;;;;10.82;85.77;100527.13;5074547;28;20113;-75
2023/03/22 08:34:38;;;;;;;16.70;3.58;;;;;;;10.88;84.18;100523.09;5073530;28;20032;-75
2023/03/22 08:37:05;;;;;;;17.33;3.88;;;;;;;10.92;84.79;100523.69;5074448;28;20070;-75
2023/03/22 08:39:31;;;;;;;13.10;3.20;;;;;;;10.96;84.57;100519.78;5067516;28;20076;-75
2023/03/22 08:41:56;;;;;;;18.50;4.00;;;;;;;10.98;83.84;100523.19;5076679;28;20033;-75
2023/03/22 08:44:21;;;;;;;15.02;3.97;;;;;;;11.00;83.32;100522.09;5077311;28;20025;-75
2023/03/22 08:46:47;;;;;;;14.98;3.80;;;;;;;11.02;82.83;100530.03;5069978;28;20399;-75
2023/03/22 08:49:13;;;;;;;13.00;3.60;;;;;;;11.06;84.50;100519.91;5066982;28;20116;-75
2023/03/22 08:51:39;;;;;;;16.92;4.43;;;;;;;11.10;83.63;100522.22;5073162;28;20020;-75
2023/03/22 08:54:05;;;;;;;13.65;3.55;;;;;;;11.15;83.37;100521.84;5065026;28;20040;-75
2023/03/22 08:56:36;;;;;;;15.50;3.30;;;;;;;11.21;83.37;100525.88;5061652;28;20040;-75
2023/03/22 08:59:01;;;;;;;16.55;4.13;;;;;;;11.26;84.22;100532.59;5062211;28;20070;-75
2023/03/22 09:01:27;;;;;;;17.10;3.88;;;;;;;11.29;82.42;100512.63;5076118;28;20028;-75
2023/03/22 09:03:52;;;;;;;14.77;3.60;;;;;;;11.34;82.45;100511.28;5076332;28;20074;-75
2023/03/22 09:06:17;;;;;;;20.60;4.25;;;;;;;11.35;80.89;100520.22;5079025;28;20060;-75
2023/03/22 09:08:43;;;;;;;13.65;3.20;;;;;;;11.38;81.21;100525.34;5073015;28;20135;-75
2023/03/22 09:11:10;;;;;;;17.15;3.53;;;;;;;11.39;80.67;100516.31;5070849;28;20043;-75
2023/03/22 09:13:35;;;;;;;19.38;3.63;;;;;;;11.41;81.64;100511.63;5063863;28;20024;-75
2023/03/22 09:16:01;;;;;;;16.02;4.32;;;;;;;11.45;81.32;100521.16;5071383;28;20059;-75
2023/03/22 09:18:26;;;;;;;10.77;3.20;;;;;;;11.49;79.87;100508.31;5077967;28;20093;-75
2023/03/22 09:20:52;;;;;;;14.93;3.15;;;;;;;11.57;80.47;100513.03;5076981;28;20083;-75
2023/03/22 09:23:18;;;;;;;17.58;4.00;;;;;;;11.62;80.08;100508.16;5064115;28;20025;-75
2023/03/22 09:25:44;;;;;;;23.92;3.45;;;;;;;11.66;79.46;100507.75;5064776;28;20041;-75
2023/03/22 09:28:10;;;;;;;13.75;3.28;;;;;;;11.68;79.00;100499.53;5072405;28;20035;-75
2023/03/22 09:30:35;;;;;;;11.65;3.17;;;;;;;11.69;78.96;100512.88;5071244;28;20040;-75
2023/03/22 09:33:01;;;;;;;15.80;3.30;;;;;;;11.73;79.31;100508.09;5074163;28;20048;-75
2023/03/22 09:35:26;;;;;;;17.60;4.40;;;;;;;11.76;79.69;100498.91;5074066;28;20048;-75
2023/03/22 09:37:53;;;;;;;16.60;3.72;;;;;;;11.75;77.71;100498.06;5066965;28;20029;-75
2023/03/22 09:40:20;;;;;;;17.63;3.80;;;;;;;11.71;77.20;100499.28;5079518;28;20357;-75
2023/03/22 09:42:49;;;;;;;13.70;3.50;;;;;;;11.69;78.00;100499.41;5075554;28;20025;-75
2023/03/22 09:45:23;;;;;;;11.55;3.03;;;;;;;11.69;79.10;100502.09;5069257;28;20025;-75
2023/03/22 09:47:53;;;;;;;11.90;2.83;;;;;;;11.66;76.72;100496.97;5072526;28;20021;-75
2023/03/22 09:50:25;;;;;;;15.20;3.50;;;;;;;11.63;77.41;100486.47;5070754;28;20025;-75
2023/03/22 09:52:51;;;;;;;14.52;3.03;;;;;;;11.62;77.07;100503.59;5074154;28;20033;-75
2023/03/22 09:55:36;;;;;;;15.70;3.28;;;;;;;11.61;78.03;100503.72;5067749;28;20077;-75
2023/03/22 09:58:26;;;;;;;10.73;3.30;;;;;;;11.62;77.70;100508.97;5071365;28;20033;-75
2023/03/22 10:00:59;;;;;;;14.70;3.33;;;;;;;11.60;78.65;100497.50;5064843;28;20030;-75
2023/03/22 10:03:51;;;;;;;13.02;2.95;;;;;;;11.60;78.72;100502.03;5070862;28;20089;-75
2023/03/22 10:06:22;;;;;;;12.45;3.53;;;;;;;11.55;77.28;100507.78;5070912;28;20037;-75
2023/03/22 10:09:02;;;;;;;14.43;3.10;;;;;;;11.55;78.27;100499.72;5077407;28;20028;-75
2023/03/22 10:11:43;;;;;;;15.30;3.80;;;;;;;11.53;77.67;100505.22;5075116;28;20039;-75
2023/03/22 10:14:30;;;;;;;17.05;3.45;;;;;;;11.53;79.27;100516.00;5075249;28;20104;-75
2023/03/22 10:17:02;;;;;;;16.25;2.92;;;;;;;11.49;79.33;100500.22;5067086;28;20048;-75
2023/03/22 10:19:55;;;;;;;13.93;3.30;;;;;;;11.50;81.25;100505.47;5063940;28;20072;-75
2023/03/22 10:22:30;;;;;;;8.98;2.97;;;;;;;11.47;80.81;100505.75;5075653;28;20051;-75
2023/03/22 10:24:56;;;;;;;15.48;3.58;;;;;;;11.41;81.83;100519.72;5077862;28;20028;-75
2023/03/22 10:27:25;;;;;;;15.98;3.40;;;;;;;11.38;82.21;100514.56;5076093;28;20097;-75
2023/03/22 10:30:02;;;;;;;13.73;3.55;;;;;;;11.36;83.74;100525.47;5064381;28;20039;-75
2023/03/22 10:32:40;;;;;;;13.13;3.70;;;;;;;11.33;87.28;100528.41;5048373;28;20071;-75
2023/03/22 10:35:05;;;;;;;11.32;3.28;;;;;;;11.28;88.54;100524.38;5057576;28;20029;-75
2023/03/22 10:37:34;;;;;;;14.85;3.35;;;;;;;11.21;89.97;100523.16;5056675;28;20024;-75
2023/03/22 10:40:05;;;;;;;19.48;3.90;;;;;;;11.17;92.45;100523.41;5055817;28;20043;-75
2023/03/22 10:42:33;;;;;;;13.45;3.65;;;;;;;11.15;94.68;100522.66;5049532;28;20477;-75
2023/03/22 10:45:04;;;;;;;14.13;3.38;;;;;;;11.12;94.72;100520.25;5053432;28;20491;-75
2023/03/22 10:47:44;;;;;;;14.43;4.05;;;;;;;11.09;95.48;100525.03;5050792;28;20033;-75
2023/03/22 10:50:21;;;;;;;10.52;3.10;;;;;;;11.05;95.87;100524.41;5051550;28;20063;-75
2023/03/22 10:52:55;;;;;;;13.40;3.78;;;;;;;11.03;98.02;100521.00;5049789;28;20026;-75
2023/03/22 10:55:20;;;;;;;12.77;3.65;;;;;;;11.02;97.26;100520.16;5051726;28;20096;-75
2023/03/22 10:57:58;;;;;;;12.30;3.42;;;;;;;11.00;99.00;100516.72;5053909;28;20432;-75
2023/03/22 11:00:23;;;;;;;12.65;3.20;;;;;;;10.97;99.26;100508.88;5053277;28;20055;-75
2023/03/22 11:02:57;;;;;;;15.55;4.18;;;;;;;10.94;99.84;100517.22;5051007;28;20064;-75
2023/03/22 11:05:25;;;;;;;15.98;4.07;;;;;;;10.92;100.00;100523.69;5055661;28;20112;-75
2023/03/22 11:07:51;;;;;;;12.48;3.78;;;;;;;10.91;100.00;100511.19;5054659;28;20025;-75
2023/03/22 11:10:31;;;;;;;16.65;3.78;;;;;;;10.90;100.00;100514.88;5052223;28;20033;-75
2023/03/22 11:13:06;;;;;;;15.07;3.75;;;;;;;10.88;100.00;100511.44;5054731;28;20052;-75
2023/03/22 11:15:34;;;;;;;13.95;3.40;;;;;;;10.89;100.00;100513.16;5058672;28;20071;-75
2023/03/22 11:18:20;;;;;;;14.55;3.85;;;;;;;10.90;100.00;100504.97;5071375;28;20028;-75
2023/03/22 11:21:16;;;;;;;14.82;4.43;;;;;;;10.94;100.00;100505.59;5061447;28;20055;-75
2023/03/22 11:23:50;;;;;;;15.02;3.90;;;;;;;10.93;100.00;100502.03;5067302;28;20059;-75
2023/03/22 11:26:25;;;;;;;16.83;4.20;;;;;;;10.96;100.00;100499.09;5069457;28;20036;-75
2023/03/22 11:28:50;;;;;;;14.30;3.83;;;;;;;11.00;100.00;100494.34;5064219;28;20025;-75